createdAt,value
2018-04-13T00:00:33.396Z,0.00
2018-04-13T00:01:33.334Z,0.00
2018-04-13T00:02:33.371Z,0.00
2018-04-13T00:03:33.305Z,0.00
2018-04-13T00:04:33.948Z,0.00
2018-04-13T00:05:33.297Z,0.00
2018-04-13T00:06:33.720Z,0.00
2018-04-13T00:07:33.264Z,0.00
2018-04-13T00:08:33.244Z,0.00
2018-04-13T00:09:33.237Z,0.00
2018-04-13T00:10:33.519Z,0.00
2018-04-13T00:11:33.205Z,0.00
2018-04-13T00:12:33.249Z,0.00
2018-04-13T00:13:33.187Z,0.00
2018-04-13T00:14:33.268Z,0.00
2018-04-13T00:15:33.153Z,0.00
2018-04-13T00:16:33.445Z,0.00
2018-04-13T00:17:33.130Z,0.00
2018-04-13T00:18:33.172Z,0.00
2018-04-13T00:19:33.104Z,0.00
2018-04-13T00:21:33.080Z,0.00
2018-04-13T00:22:33.071Z,0.00
2018-04-13T00:23:33.351Z,0.00
2018-04-13T00:24:33.088Z,0.00
2018-04-13T00:25:33.039Z,0.00
2018-04-13T00:26:33.016Z,0.00
2018-04-13T00:27:33.002Z,0.00
2018-04-13T00:28:32.990Z,0.00
2018-04-13T00:29:33.370Z,0.00
2018-04-13T00:30:33.166Z,0.00
2018-04-13T00:31:32.952Z,0.00
2018-04-13T00:32:32.938Z,0.00
2018-04-13T00:33:32.927Z,0.00
2018-04-13T00:34:32.911Z,0.00
2018-04-13T00:35:33.321Z,0.00
2018-04-13T00:37:32.925Z,0.00
2018-04-13T00:38:32.859Z,0.00
2018-04-13T00:39:32.852Z,0.00
2018-04-13T00:40:32.835Z,0.00
2018-04-13T00:41:33.131Z,0.00
2018-04-13T00:42:32.914Z,0.00
2018-04-13T00:43:32.847Z,0.00
2018-04-13T00:44:32.781Z,0.00
2018-04-13T00:45:33.119Z,0.00
2018-04-13T00:46:32.755Z,0.00
2018-04-13T00:47:32.740Z,0.00
2018-04-13T00:48:33.027Z,0.00
2018-04-13T00:49:32.774Z,0.00
2018-04-13T00:50:32.702Z,0.00
2018-04-13T00:51:32.689Z,0.00
2018-04-13T00:52:32.678Z,0.00
2018-04-13T00:53:32.663Z,0.00
2018-04-13T00:54:32.664Z,0.00
2018-04-13T00:55:32.987Z,0.00
2018-04-13T00:56:32.729Z,0.00
2018-04-13T00:57:32.610Z,0.00
2018-04-13T00:58:32.605Z,0.00
2018-04-13T00:59:32.589Z,0.00
2018-04-13T01:00:32.573Z,0.00
2018-04-13T01:01:32.710Z,0.00
2018-04-13T01:02:32.996Z,0.00
2018-04-13T01:04:32.521Z,0.00
2018-04-13T01:05:32.503Z,0.00
2018-04-13T01:06:32.493Z,0.00
2018-04-13T01:07:32.482Z,0.00
2018-04-13T01:08:32.518Z,0.00
2018-04-13T01:09:32.753Z,0.00
2018-04-13T01:10:32.444Z,0.00
2018-04-13T01:11:32.428Z,0.00
2018-04-13T01:12:32.416Z,0.00
2018-04-13T01:13:32.398Z,0.00
2018-04-13T01:14:32.439Z,0.00
2018-04-13T01:16:32.812Z,0.00
2018-04-13T01:17:32.349Z,0.00
2018-04-13T01:18:32.337Z,0.00
2018-04-13T01:19:32.320Z,0.00
2018-04-13T01:20:32.314Z,0.00
2018-04-13T01:21:32.296Z,0.00
2018-04-13T01:22:32.341Z,0.00
2018-04-13T01:23:32.571Z,0.00
2018-04-13T01:24:32.257Z,0.00
2018-04-13T01:25:32.256Z,0.00
2018-04-13T01:26:32.229Z,0.00
2018-04-13T01:27:32.317Z,0.00
2018-04-13T01:28:32.553Z,0.00
2018-04-13T01:29:32.192Z,0.00
2018-04-13T01:30:32.480Z,0.00
2018-04-13T01:31:32.163Z,0.00
2018-04-13T01:32:32.165Z,0.00
2018-04-13T01:33:32.145Z,0.00
2018-04-13T01:34:32.179Z,0.00
2018-04-13T01:35:32.116Z,0.00
2018-04-13T01:36:32.400Z,0.00
2018-04-13T01:37:32.086Z,0.00
2018-04-13T01:38:32.121Z,0.00
2018-04-13T01:39:32.061Z,0.00
2018-04-13T01:40:32.102Z,0.00
2018-04-13T01:41:32.035Z,0.00
2018-04-13T01:42:32.324Z,0.00
2018-04-13T01:43:32.009Z,0.00
2018-04-13T01:44:32.012Z,0.00
2018-04-13T01:45:31.991Z,0.00
2018-04-13T01:46:32.034Z,0.00
2018-04-13T01:47:31.973Z,0.00
2018-04-13T01:48:32.242Z,0.00
2018-04-13T01:49:31.934Z,0.00
2018-04-13T01:50:31.926Z,0.00
2018-04-13T01:51:31.906Z,0.00
2018-04-13T01:52:32.244Z,0.00
2018-04-13T01:53:31.879Z,0.00
2018-04-13T01:54:32.176Z,0.00
2018-04-13T01:55:31.855Z,0.00
2018-04-13T01:56:31.844Z,0.00
2018-04-13T01:57:31.829Z,0.00
2018-04-13T01:59:31.850Z,0.00
2018-04-13T02:00:31.784Z,0.00
2018-04-13T02:01:32.074Z,0.00
2018-04-13T02:02:31.760Z,0.00
2018-04-13T02:03:31.755Z,0.00
2018-04-13T02:04:31.786Z,0.00
2018-04-13T02:05:31.723Z,0.00
2018-04-13T02:06:31.808Z,0.00
2018-04-13T02:07:32.008Z,0.00
2018-04-13T02:08:31.981Z,0.00
2018-04-13T02:09:31.670Z,0.00
2018-04-13T02:10:32.305Z,0.00
2018-04-13T02:11:31.640Z,0.00
2018-04-13T02:12:31.632Z,0.00
2018-04-13T02:13:31.916Z,0.00
2018-04-13T02:14:31.604Z,0.00
2018-04-13T02:15:31.594Z,0.00
2018-04-13T02:17:31.667Z,0.00
2018-04-13T02:18:31.556Z,0.00
2018-04-13T02:19:31.535Z,0.00
2018-04-13T02:20:31.822Z,0.00
2018-04-13T02:21:31.505Z,0.00
2018-04-13T02:22:31.493Z,0.00
2018-04-13T02:23:31.732Z,0.00
2018-04-13T02:24:31.469Z,0.00
2018-04-13T02:25:31.454Z,0.00
2018-04-13T02:26:31.441Z,0.00
2018-04-13T02:27:31.767Z,0.00
2018-04-13T02:28:31.412Z,0.00
2018-04-13T02:29:31.450Z,0.00
2018-04-13T02:30:31.383Z,0.00
2018-04-13T02:31:31.368Z,0.00
2018-04-13T02:32:31.358Z,0.00
2018-04-13T02:33:31.346Z,0.00
2018-04-13T02:34:31.727Z,0.00
2018-04-13T02:35:31.370Z,0.00
2018-04-13T02:36:31.300Z,0.00
2018-04-13T02:37:31.295Z,0.00
2018-04-13T02:38:31.274Z,0.00
2018-04-13T02:40:31.559Z,0.00
2018-04-13T02:41:31.586Z,0.00
2018-04-13T02:42:31.221Z,0.00
2018-04-13T02:43:31.204Z,0.00
2018-04-13T02:44:31.201Z,0.00
2018-04-13T02:45:31.183Z,0.00
2018-04-13T02:46:31.168Z,0.00
2018-04-13T02:47:31.527Z,0.00
2018-04-13T02:48:31.134Z,0.00
2018-04-13T02:49:31.123Z,0.00
2018-04-13T02:50:31.208Z,0.00
2018-04-13T02:51:31.102Z,0.00
2018-04-13T02:52:31.082Z,0.00
2018-04-13T02:53:31.116Z,0.00
2018-04-13T02:54:31.360Z,0.00
2018-04-13T02:56:31.026Z,0.00
2018-04-13T02:57:31.013Z,0.00
2018-04-13T02:58:31.003Z,0.00
2018-04-13T02:59:31.034Z,0.00
2018-04-13T03:00:31.027Z,0.00
2018-04-13T03:01:31.260Z,0.00
2018-04-13T03:02:30.943Z,0.00
2018-04-13T03:03:30.989Z,0.00
2018-04-13T03:04:30.925Z,0.00
2018-04-13T03:05:31.352Z,0.00
2018-04-13T03:06:30.893Z,0.00
2018-04-13T03:07:31.228Z,0.00
2018-04-13T03:08:30.874Z,0.00
2018-04-13T03:09:30.854Z,0.00
2018-04-13T03:10:30.833Z,0.00
2018-04-13T03:11:30.888Z,0.00
2018-04-13T03:12:30.804Z,0.00
2018-04-13T03:13:31.092Z,0.00
2018-04-13T03:14:30.825Z,0.00
2018-04-13T03:15:30.766Z,0.00
2018-04-13T03:16:30.747Z,0.00
2018-04-13T03:17:30.801Z,0.00
2018-04-13T03:18:30.729Z,0.00
2018-04-13T03:19:31.007Z,0.00
2018-04-13T03:20:30.693Z,0.00
2018-04-13T03:21:30.680Z,0.00
2018-04-13T03:22:30.669Z,0.00
2018-04-13T03:23:30.706Z,0.00
2018-04-13T03:24:30.645Z,0.00
2018-04-13T03:25:30.947Z,0.00
2018-04-13T03:26:30.608Z,0.00
2018-04-13T03:27:30.593Z,0.00
2018-04-13T03:28:30.591Z,0.00
2018-04-13T03:29:30.719Z,0.00
2018-04-13T03:30:30.553Z,0.00
2018-04-13T03:31:30.841Z,0.00
2018-04-13T03:32:30.539Z,0.00
2018-04-13T03:33:30.510Z,0.00
2018-04-13T03:34:30.503Z,0.00
2018-04-13T03:35:30.546Z,0.00
2018-04-13T03:36:30.472Z,0.00
2018-04-13T03:37:30.760Z,0.00
2018-04-13T03:38:30.438Z,0.00
2018-04-13T03:39:30.425Z,0.00
2018-04-13T03:40:30.413Z,0.00
2018-04-13T03:41:30.449Z,0.00
2018-04-13T03:42:30.385Z,0.00
2018-04-13T03:43:30.673Z,0.00
2018-04-13T03:44:30.355Z,0.00
2018-04-13T03:46:30.329Z,0.00
2018-04-13T03:47:30.362Z,0.00
2018-04-13T03:48:30.301Z,0.00
2018-04-13T03:49:30.285Z,0.00
2018-04-13T03:50:30.573Z,0.00
2018-04-13T03:51:30.257Z,0.00
2018-04-13T03:52:30.242Z,0.00
2018-04-13T03:53:30.278Z,0.00
2018-04-13T03:54:30.242Z,0.00
2018-04-13T03:55:30.198Z,4.00
2018-04-13T03:56:30.357Z,4.00
2018-04-13T03:57:30.551Z,4.00
2018-04-13T03:59:30.212Z,4.00
2018-04-13T04:00:30.439Z,4.00
2018-04-13T04:01:30.468Z,4.00
2018-04-13T04:02:30.163Z,4.00
2018-04-13T04:03:30.084Z,8.00
2018-04-13T04:04:30.408Z,4.00
2018-04-13T04:05:30.116Z,8.00
2018-04-13T04:06:30.076Z,8.00
2018-04-13T04:07:30.071Z,8.00
2018-04-13T04:08:30.008Z,16.00
2018-04-13T04:10:28.883Z,16.00
2018-04-13T04:10:29.978Z,16.00
2018-04-13T04:12:30.302Z,24.00
2018-04-13T04:13:29.939Z,28.00
2018-04-13T04:14:29.917Z,36.00
2018-04-13T04:15:29.909Z,40.00
2018-04-13T04:16:29.937Z,44.00
2018-04-13T04:17:29.875Z,52.00
2018-04-13T04:18:29.969Z,60.00
2018-04-13T04:19:30.900Z,64.00
2018-04-13T04:20:29.827Z,68.00
2018-04-13T04:21:29.814Z,76.00
2018-04-13T04:22:29.804Z,80.00
2018-04-13T04:23:29.789Z,92.00
2018-04-13T04:25:29.766Z,104.00
2018-04-13T04:26:30.062Z,108.00
2018-04-13T04:27:29.733Z,108.00
2018-04-13T04:28:29.711Z,112.00
2018-04-13T04:29:29.805Z,116.00
2018-04-13T04:31:29.738Z,128.00
2018-04-13T04:32:29.656Z,136.00
2018-04-13T04:33:29.946Z,148.00
2018-04-13T04:34:29.677Z,160.00
2018-04-13T04:35:29.609Z,168.00
2018-04-13T04:36:29.605Z,180.00
2018-04-13T04:37:29.634Z,188.00
2018-04-13T04:38:29.670Z,188.00
2018-04-13T04:39:29.851Z,188.00
2018-04-13T04:40:29.537Z,184.00
2018-04-13T04:42:29.860Z,188.00
2018-04-13T04:43:29.493Z,196.00
2018-04-13T04:44:29.480Z,212.00
2018-04-13T04:45:29.768Z,228.00
2018-04-13T04:46:29.452Z,240.00
2018-04-13T04:47:29.445Z,248.00
2018-04-13T04:48:29.475Z,256.00
2018-04-13T04:49:29.419Z,264.00
2018-04-13T04:50:29.609Z,292.00
2018-04-13T04:51:29.697Z,336.00
2018-04-13T04:52:29.689Z,400.00
2018-04-13T04:53:29.355Z,476.00
2018-04-13T04:54:29.688Z,568.00
2018-04-13T04:55:29.322Z,664.00
2018-04-13T04:56:29.308Z,748.00
2018-04-13T04:57:29.294Z,812.00
2018-04-13T04:58:29.281Z,872.00
2018-04-13T04:59:29.263Z,940.00
2018-04-13T05:01:29.301Z,1004.00
2018-04-13T05:02:29.223Z,1000.00
2018-04-13T05:03:29.506Z,960.00
2018-04-13T05:04:29.192Z,880.00
2018-04-13T05:05:29.180Z,804.00
2018-04-13T05:06:29.167Z,732.00
2018-04-13T05:07:29.303Z,680.00
2018-04-13T05:08:29.137Z,648.00
2018-04-13T05:09:29.476Z,632.00
2018-04-13T05:10:29.164Z,620.00
2018-04-13T05:11:29.099Z,624.00
2018-04-13T05:12:29.190Z,644.00
2018-04-13T05:13:29.117Z,684.00
2018-04-13T05:14:29.053Z,744.00
2018-04-13T05:15:29.336Z,832.00
2018-04-13T05:16:29.135Z,916.00
2018-04-13T05:17:29.108Z,984.00
2018-04-13T05:18:29.193Z,1028.00
2018-04-13T05:19:29.028Z,1056.00
2018-04-13T05:20:28.966Z,1092.00
2018-04-13T05:21:28.953Z,1144.00
2018-04-13T05:22:29.694Z,1188.00
2018-04-13T05:23:28.918Z,1216.00
2018-04-13T05:24:28.960Z,1228.00
2018-04-13T05:25:28.898Z,1224.00
2018-04-13T05:26:28.882Z,1228.00
2018-04-13T05:27:28.970Z,1248.00
2018-04-13T05:28:29.015Z,1320.00
2018-04-13T05:29:29.293Z,1424.00
2018-04-13T05:30:28.833Z,1544.00
2018-04-13T05:31:28.809Z,1684.00
2018-04-13T05:32:28.809Z,1820.00
2018-04-13T05:33:28.781Z,1952.00
2018-04-13T05:34:28.917Z,2060.00
2018-04-13T05:35:29.053Z,2188.00
2018-04-13T05:36:28.744Z,2304.00
2018-04-13T05:37:28.732Z,2408.00
2018-04-13T05:38:28.712Z,2540.00
2018-04-13T05:39:28.703Z,2700.00
2018-04-13T05:40:28.786Z,2860.00
2018-04-13T05:41:28.969Z,2924.00
2018-04-13T05:42:28.658Z,2968.00
2018-04-13T05:43:28.657Z,3032.00
2018-04-13T05:44:28.634Z,3100.00
2018-04-13T05:45:28.621Z,3008.00
2018-04-13T05:46:28.751Z,2956.00
2018-04-13T05:47:28.586Z,2928.00
2018-04-13T05:48:28.876Z,2956.00
2018-04-13T05:49:28.562Z,3164.00
2018-04-13T05:50:28.548Z,3456.00
2018-04-13T05:51:28.536Z,3768.00
2018-04-13T05:52:28.571Z,3908.00
2018-04-13T05:53:28.526Z,3868.00
2018-04-13T05:54:28.792Z,3652.00
2018-04-13T05:55:28.486Z,3340.00
2018-04-13T05:56:28.464Z,2956.00
2018-04-13T05:57:28.455Z,2684.00
2018-04-13T05:58:28.497Z,2548.00
2018-04-13T05:59:28.426Z,2496.00
2018-04-13T06:00:29.256Z,2456.00
2018-04-13T06:01:29.173Z,2428.00
2018-04-13T06:02:28.495Z,2428.00
2018-04-13T06:03:28.368Z,2468.00
2018-04-13T06:04:28.440Z,2524.00
2018-04-13T06:05:28.521Z,2560.00
2018-04-13T06:06:28.732Z,2612.00
2018-04-13T06:07:28.345Z,2672.00
2018-04-13T06:08:28.328Z,2920.00
2018-04-13T06:09:28.286Z,3204.00
2018-04-13T06:10:28.332Z,3444.00
2018-04-13T06:11:28.261Z,3508.00
2018-04-13T06:12:28.548Z,3412.00
2018-04-13T06:13:28.314Z,3288.00
2018-04-13T06:14:28.298Z,3216.00
2018-04-13T06:15:28.285Z,3200.00
2018-04-13T06:16:28.264Z,3224.00
2018-04-13T06:17:28.244Z,3204.00
2018-04-13T06:18:28.589Z,3252.00
2018-04-13T06:19:28.202Z,3516.00
2018-04-13T06:20:28.150Z,3944.00
2018-04-13T06:21:28.387Z,4272.00
2018-04-13T06:22:28.173Z,4360.00
2018-04-13T06:23:28.105Z,4268.00
2018-04-13T06:24:28.441Z,4120.00
2018-04-13T06:25:28.070Z,3972.00
2018-04-13T06:26:28.057Z,3832.00
2018-04-13T06:27:28.045Z,3704.00
2018-04-13T06:28:28.110Z,3640.00
2018-04-13T06:29:28.119Z,3588.00
2018-04-13T06:30:28.307Z,3520.00
2018-04-13T06:31:28.011Z,3504.00
2018-04-13T06:32:28.032Z,3500.00
2018-04-13T06:33:28.100Z,3472.00
2018-04-13T06:34:28.356Z,3452.00
2018-04-13T06:35:28.053Z,3424.00
2018-04-13T06:36:28.281Z,3472.00
2018-04-13T06:37:27.913Z,3528.00
2018-04-13T06:38:27.982Z,3588.00
2018-04-13T06:39:27.896Z,3604.00
2018-04-13T06:40:28.116Z,3652.00
2018-04-13T06:41:27.999Z,3692.00
2018-04-13T06:42:28.237Z,3760.00
2018-04-13T06:43:27.948Z,3844.00
2018-04-13T06:44:27.828Z,3936.00
2018-04-13T06:45:27.813Z,4000.00
2018-04-13T06:46:27.810Z,4144.00
2018-04-13T06:47:27.892Z,4276.00
2018-04-13T06:48:28.077Z,4368.00
2018-04-13T06:49:27.825Z,4448.00
2018-04-13T06:50:27.754Z,4532.00
2018-04-13T06:51:27.742Z,4644.00
2018-04-13T06:52:27.729Z,4728.00
2018-04-13T06:53:28.192Z,4824.00
2018-04-13T06:54:28.005Z,4908.00
2018-04-13T06:55:27.747Z,5012.00
2018-04-13T06:56:27.675Z,5112.00
2018-04-13T06:57:27.662Z,5224.00
2018-04-13T06:58:27.652Z,5308.00
2018-04-13T06:59:27.644Z,5404.00
2018-04-13T07:00:27.931Z,5500.00
2018-04-13T07:01:27.665Z,5600.00
2018-04-13T07:02:27.658Z,5660.00
2018-04-13T07:03:27.659Z,5764.00
2018-04-13T07:04:27.587Z,5864.00
2018-04-13T07:05:27.565Z,5988.00
2018-04-13T07:06:27.894Z,6096.00
2018-04-13T07:07:27.601Z,6256.00
2018-04-13T07:08:27.624Z,6352.00
2018-04-13T07:09:27.525Z,6464.00
2018-04-13T07:10:27.518Z,6572.00
2018-04-13T07:11:27.505Z,6612.00
2018-04-13T07:12:27.841Z,6624.00
2018-04-13T07:13:27.526Z,6580.00
2018-04-13T07:14:27.470Z,6504.00
2018-04-13T07:15:27.452Z,6412.00
2018-04-13T07:16:27.443Z,6380.00
2018-04-13T07:17:27.534Z,6384.00
2018-04-13T07:18:27.796Z,6272.00
2018-04-13T07:19:27.520Z,6144.00
2018-04-13T07:20:27.461Z,6000.00
2018-04-13T07:21:27.398Z,5772.00
2018-04-13T07:22:27.451Z,5596.00
2018-04-13T07:23:27.512Z,5440.00
2018-04-13T07:24:27.706Z,5280.00
2018-04-13T07:25:27.362Z,5220.00
2018-04-13T07:26:27.413Z,5144.00
2018-04-13T07:27:27.414Z,5072.00
2018-04-13T07:28:27.308Z,5004.00
2018-04-13T07:29:27.301Z,4984.00
2018-04-13T07:30:27.639Z,4980.00
2018-04-13T07:31:27.321Z,5032.00
2018-04-13T07:32:27.261Z,5128.00
2018-04-13T07:33:27.251Z,5256.00
2018-04-13T07:34:27.422Z,5364.00
2018-04-13T07:35:27.233Z,5512.00
2018-04-13T07:36:27.578Z,5680.00
2018-04-13T07:37:27.209Z,5840.00
2018-04-13T07:38:27.202Z,6036.00
2018-04-13T07:39:28.690Z,6268.00
2018-04-13T07:40:27.226Z,6528.00
2018-04-13T07:41:27.166Z,6776.00
2018-04-13T07:42:27.467Z,7008.00
2018-04-13T07:43:28.453Z,7216.00
2018-04-13T07:44:27.166Z,7464.00
2018-04-13T07:45:27.125Z,7720.00
2018-04-13T07:46:27.221Z,7972.00
2018-04-13T07:47:27.107Z,8188.00
2018-04-13T07:48:27.397Z,8384.00
2018-04-13T07:49:27.090Z,8524.00
2018-04-13T07:50:27.176Z,8668.00
2018-04-13T07:51:27.129Z,8812.00
2018-04-13T07:52:27.422Z,8936.00
2018-04-13T07:53:27.043Z,9104.00
2018-04-13T07:54:27.332Z,9272.00
2018-04-13T07:55:27.025Z,9452.00
2018-04-13T07:56:27.073Z,9640.00
2018-04-13T07:57:27.009Z,9844.00
2018-04-13T07:58:27.051Z,10048.00
2018-04-13T07:59:26.986Z,10240.00
2018-04-13T08:00:27.347Z,10436.00
2018-04-13T08:01:27.016Z,10608.00
2018-04-13T08:02:26.962Z,10736.00
2018-04-13T08:03:26.937Z,10856.00
2018-04-13T08:04:26.982Z,10988.00
2018-04-13T08:05:26.924Z,11104.00
2018-04-13T08:06:27.278Z,11204.00
2018-04-13T08:07:26.911Z,11272.00
2018-04-13T08:08:26.897Z,11304.00
2018-04-13T08:09:26.889Z,11264.00
2018-04-13T08:10:26.986Z,11172.00
2018-04-13T08:11:26.869Z,11124.00
2018-04-13T08:12:27.824Z,11116.00
2018-04-13T08:13:26.854Z,11128.00
2018-04-13T08:14:26.866Z,11132.00
2018-04-13T08:15:26.924Z,11156.00
2018-04-13T08:16:33.154Z,11236.00
2018-04-13T08:17:26.811Z,11368.00
2018-04-13T08:18:26.811Z,11492.00
2018-04-13T08:19:27.194Z,11604.00
2018-04-13T08:20:26.893Z,11616.00
2018-04-13T08:21:26.779Z,11568.00
2018-04-13T08:22:27.526Z,11536.00
2018-04-13T08:23:26.755Z,11504.00
2018-04-13T08:24:27.519Z,11412.00
2018-04-13T08:25:27.185Z,11348.00
2018-04-13T08:26:26.746Z,11412.00
2018-04-13T08:27:26.785Z,11516.00
2018-04-13T08:28:26.784Z,11660.00
2018-04-13T08:29:26.806Z,11724.00
2018-04-13T08:30:26.701Z,11836.00
2018-04-13T08:31:26.684Z,11964.00
2018-04-13T08:32:27.077Z,11976.00
2018-04-13T08:33:26.691Z,12036.00
2018-04-13T08:34:26.717Z,12132.00
2018-04-13T08:35:26.840Z,12248.00
2018-04-13T08:36:26.647Z,12252.00
2018-04-13T08:37:26.635Z,12212.00
2018-04-13T08:38:26.679Z,12024.00
2018-04-13T08:39:26.928Z,11824.00
2018-04-13T08:40:26.688Z,11656.00
2018-04-13T08:41:26.706Z,11516.00
2018-04-13T08:42:26.609Z,11300.00
2018-04-13T08:43:26.791Z,11104.00
2018-04-13T08:44:26.582Z,11000.00
2018-04-13T08:45:26.882Z,11000.00
2018-04-13T08:46:26.715Z,11084.00
2018-04-13T08:47:26.552Z,11224.00
2018-04-13T08:48:26.550Z,11380.00
2018-04-13T08:49:26.582Z,11516.00
2018-04-13T08:50:26.583Z,11568.00
2018-04-13T08:51:26.816Z,11644.00
2018-04-13T08:52:26.636Z,11736.00
2018-04-13T08:53:26.549Z,11772.00
2018-04-13T08:54:26.496Z,11808.00
2018-04-13T08:55:26.592Z,11784.00
2018-04-13T08:56:27.419Z,11784.00
2018-04-13T08:57:26.826Z,11756.00
2018-04-13T08:58:26.809Z,11836.00
2018-04-13T08:59:26.466Z,11980.00
2018-04-13T09:00:26.444Z,12100.00
2018-04-13T09:01:26.442Z,12268.00
2018-04-13T09:02:26.447Z,12448.00
2018-04-13T09:03:26.717Z,12640.00
2018-04-13T09:04:26.472Z,12808.00
2018-04-13T09:05:26.557Z,12952.00
2018-04-13T09:06:26.452Z,13084.00
2018-04-13T09:07:26.393Z,13196.00
2018-04-13T09:08:26.383Z,13352.00
2018-04-13T09:09:26.716Z,13444.00
2018-04-13T09:10:26.381Z,13516.00
2018-04-13T09:11:26.649Z,13604.00
2018-04-13T09:12:27.093Z,13776.00
2018-04-13T09:13:26.572Z,13880.00
2018-04-13T09:15:27.567Z,13904.00
2018-04-13T09:16:26.307Z,13588.00
2018-04-13T09:17:26.305Z,13160.00
2018-04-13T09:18:26.335Z,12760.00
2018-04-13T09:19:26.297Z,12512.00
2018-04-13T09:20:26.626Z,12476.00
2018-04-13T09:21:26.674Z,12988.00
2018-04-13T09:22:27.091Z,13816.00
2018-04-13T09:23:26.261Z,14712.00
2018-04-13T09:24:26.294Z,15348.00
2018-04-13T09:25:26.637Z,15532.00
2018-04-13T09:26:26.243Z,15644.00
2018-04-13T09:27:26.532Z,15532.00
2018-04-13T09:28:26.222Z,15360.00
2018-04-13T09:29:26.209Z,15048.00
2018-04-13T09:30:26.250Z,14828.00
2018-04-13T09:31:26.194Z,14748.00
2018-04-13T09:32:26.243Z,14812.00
2018-04-13T09:33:26.594Z,14888.00
2018-04-13T09:34:26.177Z,15044.00
2018-04-13T09:35:26.176Z,15280.00
2018-04-13T09:36:26.212Z,15376.00
2018-04-13T09:37:26.185Z,15300.00
2018-04-13T09:38:26.281Z,15176.00
2018-04-13T09:39:26.461Z,15072.00
2018-04-13T09:40:26.240Z,14940.00
2018-04-13T09:41:26.595Z,14880.00
2018-04-13T09:42:26.124Z,14904.00
2018-04-13T09:44:26.135Z,14816.00
2018-04-13T09:45:26.446Z,14576.00
2018-04-13T09:46:26.101Z,14200.00
2018-04-13T09:48:26.077Z,13796.00
2018-04-13T09:49:26.067Z,13664.00
2018-04-13T09:50:26.110Z,13536.00
2018-04-13T09:51:26.054Z,13436.00
2018-04-13T09:52:26.347Z,13316.00
2018-04-13T09:53:26.084Z,13172.00
2018-04-13T09:54:26.038Z,13196.00
2018-04-13T09:55:26.026Z,13304.00
2018-04-13T09:56:26.015Z,13248.00
2018-04-13T09:57:26.007Z,13008.00
2018-04-13T09:58:26.654Z,12884.00
2018-04-13T09:59:25.996Z,12916.00
2018-04-13T10:00:25.995Z,13068.00
2018-04-13T10:01:26.209Z,13384.00
2018-04-13T10:02:26.131Z,13888.00
2018-04-13T10:03:25.980Z,14560.00
2018-04-13T10:04:26.608Z,15648.00
2018-04-13T10:05:26.095Z,16800.00
2018-04-13T10:06:25.946Z,18816.00
2018-04-13T10:07:25.933Z,18624.00
2018-04-13T10:08:25.932Z,19008.00
2018-04-13T10:09:25.936Z,18816.00
2018-04-13T10:10:26.576Z,19648.00
2018-04-13T10:11:25.973Z,18656.00
2018-04-13T10:12:25.907Z,18048.00
2018-04-13T10:13:25.931Z,18080.00
2018-04-13T10:14:25.929Z,18016.00
2018-04-13T10:15:25.911Z,18112.00
2018-04-13T10:16:26.477Z,17792.00
2018-04-13T10:17:26.569Z,17408.00
2018-04-13T10:18:25.865Z,17088.00
2018-04-13T10:19:25.910Z,16672.00
2018-04-13T10:20:26.005Z,16004.00
2018-04-13T10:21:25.843Z,15228.00
2018-04-13T10:22:26.242Z,14392.00
2018-04-13T10:23:26.201Z,13684.00
2018-04-13T10:24:26.081Z,13132.00
2018-04-13T10:25:25.825Z,12860.00
2018-04-13T10:26:25.819Z,12788.00
2018-04-13T10:27:25.811Z,12904.00
2018-04-13T10:28:26.108Z,13516.00
2018-04-13T10:29:25.850Z,14612.00
2018-04-13T10:31:25.792Z,15360.00
2018-04-13T10:32:26.256Z,15644.00
2018-04-13T10:33:25.770Z,15812.00
2018-04-13T10:34:26.068Z,15972.00
2018-04-13T10:35:25.827Z,15640.00
2018-04-13T10:36:25.747Z,15312.00
2018-04-13T10:37:26.419Z,15256.00
2018-04-13T10:38:25.741Z,15680.00
2018-04-13T10:39:25.949Z,15488.00
2018-04-13T10:40:26.074Z,15428.00
2018-04-13T10:41:25.717Z,15528.00
2018-04-13T10:42:25.725Z,15776.00
2018-04-13T10:43:25.707Z,15844.00
2018-04-13T10:44:25.704Z,15796.00
2018-04-13T10:45:25.689Z,15652.00
2018-04-13T10:46:25.732Z,15528.00
2018-04-13T10:47:26.185Z,15540.00
2018-04-13T10:48:25.732Z,16576.00
2018-04-13T10:49:25.670Z,18720.00
2018-04-13T10:50:25.661Z,18688.00
2018-04-13T10:51:25.646Z,20096.00
2018-04-13T10:52:25.643Z,21696.00
2018-04-13T10:53:26.037Z,21792.00
2018-04-13T10:54:25.725Z,20928.00
2018-04-13T10:55:25.622Z,19584.00
2018-04-13T10:56:25.666Z,18400.00
2018-04-13T10:57:25.621Z,17696.00
2018-04-13T10:58:25.645Z,17888.00
2018-04-13T10:59:25.903Z,18144.00
2018-04-13T11:00:25.640Z,17728.00
2018-04-13T11:01:25.618Z,17184.00
2018-04-13T11:02:26.063Z,17216.00
2018-04-13T11:03:25.582Z,17984.00
2018-04-13T11:04:25.589Z,19072.00
2018-04-13T11:05:25.870Z,20928.00
2018-04-13T11:06:25.631Z,20544.00
2018-04-13T11:07:25.554Z,20640.00
2018-04-13T11:08:25.652Z,22176.00
2018-04-13T11:09:25.557Z,21824.00
2018-04-13T11:10:25.555Z,21952.00
2018-04-13T11:11:25.933Z,21568.00
2018-04-13T11:12:25.575Z,20704.00
2018-04-13T11:13:25.641Z,20480.00
2018-04-13T11:14:25.617Z,20448.00
2018-04-13T11:15:25.708Z,20096.00
2018-04-13T11:16:31.286Z,18720.00
2018-04-13T11:17:25.581Z,17632.00
2018-04-13T11:18:25.562Z,17024.00
2018-04-13T11:19:25.588Z,17536.00
2018-04-13T11:20:26.029Z,18208.00
2018-04-13T11:21:25.500Z,20288.00
2018-04-13T11:22:26.088Z,21984.00
2018-04-13T11:23:26.039Z,22816.00
2018-04-13T11:24:25.930Z,22752.00
2018-04-13T11:25:25.608Z,22400.00
2018-04-13T11:26:26.988Z,22848.00
2018-04-13T11:27:28.487Z,24608.00
2018-04-13T11:28:26.560Z,22592.00
2018-04-13T11:29:28.396Z,21408.00
2018-04-13T11:30:27.314Z,20352.00
2018-04-13T11:31:25.829Z,19712.00
2018-04-13T11:32:25.974Z,19424.00
2018-04-13T11:33:26.416Z,19040.00
2018-04-13T11:34:26.782Z,18688.00
2018-04-13T11:35:25.763Z,18560.00
2018-04-13T11:36:26.982Z,18784.00
2018-04-13T11:37:26.292Z,19424.00
2018-04-13T11:38:25.796Z,19072.00
2018-04-13T11:39:25.433Z,18944.00
2018-04-13T11:40:25.379Z,18048.00
2018-04-13T11:41:25.920Z,17504.00
2018-04-13T11:42:25.379Z,17184.00
2018-04-13T11:43:25.469Z,16928.00
2018-04-13T11:44:25.500Z,16896.00
2018-04-13T11:45:25.504Z,16544.00
2018-04-13T11:46:26.243Z,16736.00
2018-04-13T11:47:26.137Z,16800.00
2018-04-13T11:48:25.441Z,17184.00
2018-04-13T11:49:25.929Z,18016.00
2018-04-13T11:50:25.364Z,19872.00
2018-04-13T11:51:25.543Z,19776.00
2018-04-13T11:52:25.323Z,19360.00
2018-04-13T11:53:25.612Z,18240.00
2018-04-13T11:54:25.307Z,16864.00
2018-04-13T11:55:25.355Z,15556.00
2018-04-13T11:56:25.307Z,14688.00
2018-04-13T11:57:25.292Z,13904.00
2018-04-13T11:58:25.386Z,12952.00
2018-04-13T11:59:25.583Z,11968.00
2018-04-13T12:00:25.278Z,11156.00
2018-04-13T12:01:25.339Z,10716.00
2018-04-13T12:02:25.281Z,10492.00
2018-04-13T12:03:25.260Z,10284.00
2018-04-13T12:04:25.697Z,10124.00
2018-04-13T12:05:25.631Z,10072.00
2018-04-13T12:06:25.637Z,9992.00
2018-04-13T12:07:25.285Z,9732.00
2018-04-13T12:08:25.232Z,9408.00
2018-04-13T12:09:25.303Z,9364.00
2018-04-13T12:10:25.216Z,9652.00
2018-04-13T12:11:25.595Z,10304.00
2018-04-13T12:12:25.273Z,11440.00
2018-04-13T12:13:25.391Z,12912.00
2018-04-13T12:15:25.199Z,16276.00
2018-04-13T12:16:26.097Z,17056.00
2018-04-13T12:17:25.701Z,16332.00
2018-04-13T12:18:26.077Z,15296.00
2018-04-13T12:19:25.395Z,14876.00
2018-04-13T12:20:26.183Z,14948.00
2018-04-13T12:21:25.796Z,14988.00
2018-04-13T12:22:27.006Z,15132.00
2018-04-13T12:23:25.441Z,15616.00
2018-04-13T12:24:25.138Z,16640.00
2018-04-13T12:25:25.278Z,25952.00
2018-04-13T12:26:25.154Z,21952.00
2018-04-13T12:27:25.227Z,18976.00
2018-04-13T12:28:25.115Z,18560.00
2018-04-13T12:29:25.402Z,18848.00
2018-04-13T12:30:25.096Z,19840.00
2018-04-13T12:31:25.136Z,23104.00
2018-04-13T12:32:25.283Z,18944.00
2018-04-13T12:33:25.082Z,16088.00
2018-04-13T12:34:25.138Z,14276.00
2018-04-13T12:35:25.363Z,14272.00
2018-04-13T12:36:25.152Z,15740.00
2018-04-13T12:37:25.350Z,17920.00
2018-04-13T12:38:25.054Z,19776.00
2018-04-13T12:39:25.073Z,21568.00
2018-04-13T12:40:25.334Z,22560.00
2018-04-13T12:41:25.449Z,18464.00